Time;durP1;ratioP1;P1;durP2;ratioP2;P2;SDS_P1;SDS_P2;PMS_P1;PMS_P2;Temp;Humidity;BMP_temperature;BMP_pressure;BME280_temperature;BME280_humidity;BME280_pressure;Samples;Min_cycle;Max_cycle;Signal;HPM_P1;HPM_P2
2021/10/02 05:01:10;;;;;;;32.55;18.75;;;;;;;4.74;94.83;95541.97;6120757;23;20056;31
2021/10/02 05:03:37;;;;;;;22.45;12.85;;;;;;;4.07;94.76;95461.00;4964139;29;19922;-79
2021/10/02 05:06:04;;;;;;;19.13;12.45;;;;;;;4.39;94.84;95479.00;4963749;29;20023;-81
2021/10/02 05:08:30;;;;;;;17.65;10.57;;;;;;;6.21;91.07;95547.03;4981902;28;20038;-79
2021/10/02 05:10:55;;;;;;;15.52;11.65;;;;;;;8.25;80.80;95522.75;4951424;29;20505;-79
2021/10/02 05:13:21;;;;;;;13.45;11.10;;;;;;;9.79;71.67;95507.78;4953285;29;20031;-79
2021/10/02 05:15:46;;;;;;;14.82;10.60;;;;;;;10.26;69.57;95513.41;4986736;28;20030;-79
2021/10/02 05:23:22;;;;;;;55.00;38.00;;;;;;;10.88;65.17;95503.59;5388630;23;20055;-85
2021/10/02 05:25:48;;;;;;;70.57;52.60;;;;;;;9.82;70.46;95467.88;4957205;28;20035;-87
2021/10/02 05:28:13;;;;;;;20.20;12.70;;;;;;;8.84;73.83;95515.41;4936611;28;20495;-77
2021/10/02 05:30:39;;;;;;;24.35;6.90;;;;;;;9.17;74.33;95510.53;4950993;28;20027;-88
2021/10/02 05:33:04;;;;;;;20.52;9.82;;;;;;;11.06;69.21;95502.50;4936276;28;20610;-86
2021/10/02 05:35:33;;;;;;;12.05;9.23;;;;;;;11.71;66.50;95499.97;4919000;28;20130;-85
2021/10/02 05:37:59;;;;;;;20.70;10.93;;;;;;;12.35;64.12;95503.38;4951627;28;20035;-84
2021/10/02 05:40:24;;;;;;;13.35;8.38;;;;;;;12.37;63.14;95493.63;4935463;28;20389;-81
2021/10/02 05:42:50;;;;;;;11.45;7.43;;;;;;;14.65;55.90;95505.50;4918978;28;20030;-86
2021/10/02 05:45:15;;;;;;;7.32;6.32;;;;;;;16.77;50.43;95502.72;4916319;29;20043;-81
2021/10/02 05:47:41;;;;;;;22.35;20.08;;;;;;;16.38;50.29;95498.06;4907060;29;20098;-88
2021/10/02 05:50:07;;;;;;;139.25;32.30;;;;;;;17.68;47.47;95504.00;4917347;29;20111;-79
2021/10/02 05:52:33;;;;;;;57.95;50.05;;;;;;;19.35;43.83;95503.19;4915399;28;20070;-81
2021/10/02 05:54:58;;;;;;;103.72;92.75;;;;;;;19.77;41.95;95499.13;4901456;29;20062;-84
2021/10/02 05:57:24;;;;;;;36.70;32.78;;;;;;;20.03;42.11;95500.72;4919251;29;20684;-80
2021/10/02 05:59:49;;;;;;;10.98;9.10;;;;;;;20.27;40.79;95484.94;4949358;28;20027;-78
2021/10/02 06:02:15;;;;;;;8.40;7.57;;;;;;;20.17;41.19;95510.91;4932530;29;20030;-79
2021/10/02 06:04:40;;;;;;;10.75;8.00;;;;;;;20.81;40.70;95502.59;4915413;29;20027;-81
2021/10/02 06:07:06;;;;;;;6.22;5.72;;;;;;;21.96;38.17;95503.31;4932214;28;20118;-82
2021/10/02 06:09:31;;;;;;;11.18;4.93;;;;;;;21.58;38.83;95487.81;4934061;28;20560;-82
2021/10/02 06:11:57;;;;;;;6.00;4.13;;;;;;;22.46;37.03;95503.66;4935715;28;20469;-84
2021/10/02 06:14:22;;;;;;;4.57;3.95;;;;;;;21.47;38.29;95510.50;4918314;28;20033;-83
2021/10/02 06:16:48;;;;;;;9.48;5.28;;;;;;;22.28;37.91;95515.16;4902811;29;20404;-82
2021/10/02 06:19:14;;;;;;;6.07;4.03;;;;;;;24.20;34.98;95513.66;4917416;28;20066;-83
2021/10/02 06:21:40;;;;;;;3.40;3.10;;;;;;;24.18;34.79;95501.72;4934489;28;20022;-83
2021/10/02 06:24:07;;;;;;;4.18;3.45;;;;;;;23.47;36.34;95511.84;4920355;28;20065;-84
2021/10/02 06:26:36;;;;;;;5.00;3.22;;;;;;;24.56;34.04;95499.88;4934982;28;20037;-84
2021/10/02 06:29:01;;;;;;;3.97;3.20;;;;;;;24.61;33.78;95507.91;4951439;28;20104;-84
2021/10/02 06:31:27;;;;;;;1414.45;85.70;;;;;;;22.88;36.50;95506.97;4918380;28;20031;-85
2021/10/02 06:33:52;;;;;;;6.55;3.50;;;;;;;23.08;37.03;95494.97;4920290;28;20500;-85
2021/10/02 06:36:18;;;;;;;3.65;3.30;;;;;;;23.10;37.24;95510.59;4919198;28;20069;-84
2021/10/02 06:38:43;;;;;;;4.13;3.42;;;;;;;25.43;32.38;95505.22;4919654;28;20118;-83
2021/10/02 06:41:09;;;;;;;4.20;3.63;;;;;;;25.07;32.73;95514.66;4914868;29;20024;-82
2021/10/02 06:43:35;;;;;;;39.92;4.22;;;;;;;25.20;31.86;95520.63;4914953;29;20122;-84
2021/10/02 06:46:00;;;;;;;886.08;60.45;;;;;;;23.69;32.88;95484.72;4915820;29;20118;-83
2021/10/02 06:48:26;;;;;;;1947.40;105.25;;;;;;;23.77;33.54;95502.84;4915137;29;20485;-82
2021/10/02 06:50:51;;;;;;;4.22;2.50;;;;;;;24.85;32.60;95502.44;4937217;29;21039;-85
2021/10/02 06:53:17;;;;;;;4.18;2.47;;;;;;;26.19;31.30;95508.63;4931082;29;20039;-83
2021/10/02 06:55:42;;;;;;;5.25;2.90;;;;;;;26.42;31.12;95513.59;4915658;29;20046;-83
2021/10/02 06:58:08;;;;;;;134.65;7.25;;;;;;;24.33;32.56;95502.75;4931868;29;20047;-83
2021/10/02 07:00:34;;;;;;;3.00;2.25;;;;;;;25.38;31.89;95481.28;4931459;29;20027;-85
2021/10/02 07:03:00;;;;;;;37.28;4.20;;;;;;;25.50;32.02;95510.34;4916778;29;20031;-85
2021/10/02 07:05:25;;;;;;;2.85;2.38;;;;;;;26.64;30.47;95510.81;4914758;29;20035;-84
2021/10/02 07:07:51;;;;;;;3.72;2.78;;;;;;;27.15;28.97;95504.69;4935010;28;20050;-85
2021/10/02 07:10:17;;;;;;;3.00;2.22;;;;;;;27.64;28.99;95497.16;4933932;28;20035;-86
2021/10/02 07:12:43;;;;;;;127.75;6.85;;;;;;;26.80;30.10;95511.69;4915594;28;20027;-88
2021/10/02 07:15:09;;;;;;;182.95;8.95;;;;;;;25.65;30.34;95497.25;4934550;29;20547;-91
2021/10/02 07:17:35;;;;;;;39.08;4.20;;;;;;;25.53;31.20;95512.50;4919106;29;20027;-91
2021/10/02 07:20:00;;;;;;;2.83;2.40;;;;;;;25.99;30.71;95501.28;4922569;28;20389;-86
2021/10/02 07:22:26;;;;;;;6.35;3.15;;;;;;;21.19;37.15;95497.06;4933883;28;20161;-87
2021/10/02 07:24:51;;;;;;;3.05;2.60;;;;;;;19.85;41.05;95504.09;4916162;28;20054;-88
2021/10/02 07:27:17;;;;;;;4.35;2.60;;;;;;;19.63;42.12;95500.22;4920114;28;20042;-87
2021/10/02 07:29:42;;;;;;;8.10;2.47;;;;;;;18.97;41.30;95503.19;4937865;28;20074;-87
2021/10/02 07:32:08;;;;;;;38.60;5.03;;;;;;;18.87;43.16;95505.47;4937912;28;20027;-87
2021/10/02 07:34:33;;;;;;;4.43;2.58;;;;;;;19.09;40.39;95509.41;4945563;28;20089;-92
2021/10/02 07:36:59;;;;;;;1999.90;135.55;;;;;;;17.01;43.99;95491.75;4929801;28;20026;-87
2021/10/02 07:39:24;;;;;;;2.70;2.35;;;;;;;18.72;43.58;95489.16;4938133;28;20030;-92
2021/10/02 07:41:50;;;;;;;6.60;2.80;;;;;;;19.11;42.54;95494.22;4923225;28;20042;-92
2021/10/02 07:44:24;;;;;;;278.10;13.82;;;;;;;18.67;42.94;95500.28;4921496;28;20031;-77
2021/10/02 07:46:51;;;;;;;328.35;20.48;;;;;;;15.90;46.90;95504.19;4954452;28;20051;-72
2021/10/02 07:49:17;;;;;;;251.48;15.95;;;;;;;18.33;41.85;95503.94;4937210;28;20614;-74
2021/10/02 07:51:43;;;;;;;429.27;20.08;;;;;;;17.94;41.75;95501.38;4946969;28;20039;-73
2021/10/02 07:54:08;;;;;;;2.90;2.47;;;;;;;17.96;42.24;95488.88;4948193;28;20101;-76
2021/10/02 07:56:37;;;;;;;4.50;2.55;;;;;;;17.77;43.59;95494.94;4936917;28;20035;-74
2021/10/02 07:59:06;;;;;;;6.53;2.70;;;;;;;18.62;42.57;95476.44;4938282;28;20069;-77
2021/10/02 08:01:33;;;;;;;471.35;24.63;;;;;;;18.04;42.62;95469.53;4921693;28;20077;-76
2021/10/02 08:04:00;;;;;;;627.53;28.58;;;;;;;18.15;44.14;95484.63;4922596;28;20039;-76
2021/10/02 08:06:26;;;;;;;414.20;20.75;;;;;;;17.79;42.74;95480.59;4936555;28;20126;-74
2021/10/02 08:08:51;;;;;;;237.45;11.35;;;;;;;17.10;45.30;95474.88;4938129;28;20493;-71
2021/10/02 08:11:17;;;;;;;1666.05;78.85;;;;;;;18.31;42.31;95477.13;4933397;29;20107;-75
2021/10/02 08:13:42;;;;;;;440.08;20.88;;;;;;;17.41;45.65;95469.06;4949921;28;20066;-73
2021/10/02 08:16:08;;;;;;;871.63;45.75;;;;;;;16.53;45.49;95462.16;4934952;28;20037;-73
2021/10/02 08:18:38;;;;;;;581.10;25.70;;;;;;;18.05;42.73;95485.03;4917486;29;20027;-72
2021/10/02 08:21:05;;;;;;;270.40;14.48;;;;;;;18.67;43.75;95478.47;4951970;29;20171;-74
2021/10/02 08:23:31;;;;;;;1390.65;68.45;;;;;;;18.04;42.45;95475.56;4932810;29;20054;-72
2021/10/02 08:25:56;;;;;;;770.45;34.88;;;;;;;18.13;41.49;95455.19;4918372;28;20027;-76
2021/10/02 08:28:21;;;;;;;30.92;3.13;;;;;;;19.26;41.28;95473.75;4935557;28;20038;-76
2021/10/02 08:30:47;;;;;;;396.63;21.73;;;;;;;18.42;42.10;95479.13;4952452;28;20037;-76
2021/10/02 08:33:13;;;;;;;288.25;16.63;;;;;;;18.64;42.52;95473.63;4950871;29;20401;-76
2021/10/02 08:35:39;;;;;;;1629.63;74.53;;;;;;;17.34;43.33;95474.28;4930623;28;20027;-73
2021/10/02 08:38:05;;;;;;;488.95;23.67;;;;;;;17.98;44.20;95476.34;4936886;28;20078;-74
2021/10/02 08:40:30;;;;;;;143.40;7.70;;;;;;;18.80;41.95;95473.97;4920021;28;20065;-77
2021/10/02 08:42:55;;;;;;;36.00;3.50;;;;;;;18.55;43.09;95459.13;4921718;28;20030;-77
2021/10/02 08:45:21;;;;;;;82.10;4.80;;;;;;;18.98;41.37;95465.41;4919950;28;20030;-76
2021/10/02 08:47:47;;;;;;;17.90;3.42;;;;;;;19.49;40.71;95451.41;4937178;28;20125;-76
2021/10/02 08:50:17;;;;;;;745.45;33.30;;;;;;;18.60;40.57;95461.94;4935549;28;20542;-78
2021/10/02 08:52:42;;;;;;;480.65;27.55;;;;;;;18.02;41.04;95463.66;4932645;29;20409;-76
2021/10/02 08:55:08;;;;;;;1848.78;88.93;;;;;;;17.37;41.70;95455.56;4930495;29;20031;-73
2021/10/02 08:57:34;;;;;;;57.67;5.43;;;;;;;18.63;41.05;95435.28;4935169;28;20038;-76
2021/10/02 09:00:00;;;;;;;1999.90;362.65;;;;;;;17.48;42.76;95445.50;4935709;28;20038;-74
2021/10/02 09:02:26;;;;;;;252.85;11.80;;;;;;;17.25;43.01;95458.97;4950717;28;20031;-73
2021/10/02 09:04:51;;;;;;;1202.43;82.40;;;;;;;16.81;42.68;95446.41;4937102;28;20778;-74
2021/10/02 09:07:19;;;;;;;1902.93;84.07;;;;;;;19.19;40.05;95454.59;4935601;28;20396;-73
2021/10/02 09:09:45;;;;;;;190.27;8.65;;;;;;;17.93;41.21;95449.97;4933829;29;20035;-74
2021/10/02 09:12:11;;;;;;;21.35;2.58;;;;;;;18.84;39.91;95453.38;4907943;29;20504;-76
2021/10/02 09:14:36;;;;;;;897.53;41.95;;;;;;;18.59;39.74;95457.72;4932365;29;20420;-76
2021/10/02 09:17:03;;;;;;;175.75;9.68;;;;;;;18.56;40.06;95450.25;4917781;29;20118;-76
2021/10/02 09:19:28;;;;;;;1238.22;51.22;;;;;;;18.39;40.09;95450.69;4932218;29;20024;-75
2021/10/02 09:22:07;;;;;;;68.18;5.88;;;;;;;18.17;39.88;95436.19;4950044;28;20078;-73
2021/10/02 09:24:35;;;;;;;1999.90;183.90;;;;;;;17.71;40.37;95436.28;4915959;29;20023;-74
2021/10/02 09:27:01;;;;;;;112.22;5.63;;;;;;;17.03;42.14;95436.59;4935464;28;20034;-73
2021/10/02 09:29:40;;;;;;;472.15;23.58;;;;;;;19.54;38.87;95436.59;4936182;28;20027;-76
2021/10/02 09:32:07;;;;;;;76.13;3.47;;;;;;;19.72;37.58;95427.94;4967845;28;20023;-75
2021/10/02 09:34:32;;;;;;;641.95;31.52;;;;;;;18.34;39.06;95434.75;4969430;28;20035;-76
2021/10/02 09:36:58;;;;;;;1142.22;52.47;;;;;;;17.89;38.52;95422.53;4918736;28;20466;-74
2021/10/02 09:39:39;;;;;;;1083.38;45.75;;;;;;;17.81;40.74;95420.16;4935939;28;20034;-73
2021/10/02 09:42:05;;;;;;;636.00;26.52;;;;;;;18.41;40.50;95426.84;4950472;28;20042;-73
2021/10/02 09:44:30;;;;;;;1223.63;54.67;;;;;;;17.55;41.29;95422.75;4935930;28;20030;-73
2021/10/02 09:46:56;;;;;;;893.35;42.42;;;;;;;17.20;41.80;95420.31;4935795;28;20089;-72
2021/10/02 09:49:22;;;;;;;485.50;25.23;;;;;;;17.96;41.45;95418.09;4935426;28;20041;-74
2021/10/02 09:51:47;;;;;;;156.80;9.10;;;;;;;19.50;38.48;95411.75;4951840;28;20428;-76
2021/10/02 09:54:38;;;;;;;922.75;45.72;;;;;;;17.99;40.77;95414.25;4918567;28;20503;-74
2021/10/02 09:57:07;;;;;;;169.27;8.52;;;;;;;18.24;40.88;95407.34;4951981;28;20518;-74
2021/10/02 09:59:32;;;;;;;164.75;9.52;;;;;;;17.63;41.31;95404.22;4951279;28;20029;-73
2021/10/02 10:02:20;;;;;;;1999.90;177.38;;;;;;;16.98;41.68;95407.59;4951250;28;20035;-73
2021/10/02 10:04:54;;;;;;;3.35;1.85;;;;;;;19.24;37.51;95391.72;4937366;28;20108;-75
2021/10/02 10:07:19;;;;;;;285.13;11.85;;;;;;;19.00;38.00;95384.63;4918925;28;20050;-76
2021/10/02 10:10:11;;;;;;;1835.88;80.32;;;;;;;17.22;39.36;95401.78;4926039;29;20493;-73
2021/10/02 10:12:37;;;;;;;1349.07;64.57;;;;;;;16.99;38.59;95385.63;4932333;29;20110;-76
2021/10/02 10:15:03;;;;;;;80.38;4.40;;;;;;;17.72;38.33;95395.16;4945187;28;20372;-73
2021/10/02 10:17:31;;;;;;;1379.43;73.25;;;;;;;17.75;39.50;95392.13;4951758;28;20046;-72
2021/10/02 10:20:09;;;;;;;1976.38;114.07;;;;;;;17.43;40.56;95401.59;4934841;28;20042;-73
2021/10/02 10:22:35;;;;;;;493.77;21.38;;;;;;;16.88;40.76;95386.25;4948006;28;20043;-76
2021/10/02 10:25:07;;;;;;;1065.60;44.88;;;;;;;17.75;40.27;95406.06;4919822;29;20043;-74
2021/10/02 10:27:34;;;;;;;1999.90;201.00;;;;;;;17.47;39.05;95400.16;4938733;28;20035;-74
2021/10/02 10:30:14;;;;;;;1999.90;126.43;;;;;;;18.12;39.05;95395.88;4947430;29;20433;-74
2021/10/02 10:33:00;;;;;;;179.77;9.35;;;;;;;18.54;38.73;95390.13;4948186;29;20078;-76
2021/10/02 10:35:29;;;;;;;665.15;30.67;;;;;;;17.83;39.94;95389.28;4946435;28;20075;-73
2021/10/02 10:37:54;;;;;;;1235.65;60.85;;;;;;;18.15;39.76;95384.97;4915105;29;20039;-76
2021/10/02 10:40:20;;;;;;;517.92;24.30;;;;;;;18.60;39.20;95386.66;4948314;28;20042;-75
2021/10/02 10:42:45;;;;;;;1812.05;80.15;;;;;;;17.90;39.05;95390.09;4915942;29;20515;-73
2021/10/02 10:45:11;;;;;;;1126.32;54.33;;;;;;;16.99;41.11;95381.22;4948906;28;20074;-75
2021/10/02 10:47:36;;;;;;;1043.60;60.85;;;;;;;18.06;40.36;95387.03;4915369;29;20039;-72
2021/10/02 10:50:02;;;;;;;1278.20;58.85;;;;;;;17.55;41.06;95370.34;4929090;29;20031;-73
2021/10/02 10:52:34;;;;;;;1389.97;75.93;;;;;;;17.61;41.14;95369.56;4935425;29;20034;-73
2021/10/02 10:55:00;;;;;;;1133.70;65.10;;;;;;;18.34;41.26;95373.59;4935017;29;20481;-72
2021/10/02 10:57:36;;;;;;;1999.90;231.30;;;;;;;17.47;40.83;95375.78;4936376;29;20099;-73
2021/10/02 11:00:10;;;;;;;1669.32;81.90;;;;;;;17.93;40.99;95379.19;4951290;29;20248;-73
2021/10/02 11:02:42;;;;;;;10.88;2.40;;;;;;;17.96;40.57;95370.09;4950922;29;20041;-73
2021/10/02 11:05:39;;;;;;;269.30;12.88;;;;;;;18.30;39.61;95360.09;4951844;29;20524;-75
2021/10/02 11:08:12;;;;;;;404.27;20.00;;;;;;;17.79;41.54;95365.31;4951608;28;20481;-72
2021/10/02 11:10:40;;;;;;;918.42;41.15;;;;;;;17.61;42.23;95361.72;4920396;29;20521;-73
2021/10/02 11:26:47;;;;;;;1044.10;64.93;;;;;;;17.99;40.95;95341.66;4971585;28;20697;-73
2021/10/02 11:32:47;;;;;;;353.02;17.50;;;;;;;18.28;40.42;95330.66;4970882;28;20097;-75
2021/10/02 12:05:32;;;;;;;916.75;59.65;;;;;;;18.27;40.81;95310.69;4971390;28;20105;-72
2021/10/02 12:07:58;;;;;;;403.90;22.70;;;;;;;18.14;41.94;95315.22;4952836;28;20034;-72
2021/10/02 12:10:23;;;;;;;1999.90;141.23;;;;;;;17.75;41.18;95316.16;4970955;28;20038;-75
2021/10/02 12:12:49;;;;;;;464.05;20.80;;;;;;;18.17;41.08;95309.56;4952027;28;20033;-74
2021/10/02 12:15:30;;;;;;;1999.90;123.07;;;;;;;18.60;41.12;95320.25;4949293;28;20038;-74
2021/10/02 12:17:56;;;;;;;952.22;53.10;;;;;;;18.68;41.30;95317.38;4921388;28;20081;-74
2021/10/02 12:20:34;;;;;;;449.42;21.52;;;;;;;18.41;41.96;95317.50;4936743;28;20034;-73
2021/10/02 12:23:07;;;;;;;994.08;45.95;;;;;;;18.41;41.85;95314.06;4923423;28;20035;-73
2021/10/02 12:25:32;;;;;;;3.45;2.35;;;;;;;18.46;41.46;95313.44;4932650;29;20058;-74
2021/10/02 12:27:57;;;;;;;1586.18;78.70;;;;;;;18.06;41.58;95311.00;4934936;29;20027;-73
2021/10/02 12:30:23;;;;;;;409.40;20.90;;;;;;;18.08;41.61;95314.19;4932695;29;20489;-73
2021/10/02 12:33:01;;;;;;;1528.70;114.68;;;;;;;18.39;41.70;95309.03;4950481;28;20492;-73
2021/10/02 12:35:27;;;;;;;594.28;34.45;;;;;;;18.41;41.94;95311.44;4931686;29;20039;-73
2021/10/02 12:37:56;;;;;;;1151.60;71.85;;;;;;;18.55;40.92;95293.84;4937959;29;20099;-74
2021/10/02 12:40:22;;;;;;;74.20;5.47;;;;;;;18.58;41.33;95309.16;4915885;29;20031;-73
2021/10/02 12:42:49;;;;;;;407.05;18.33;;;;;;;18.71;40.63;95311.72;4932603;29;20314;-74
2021/10/02 12:45:19;;;;;;;3.33;2.08;;;;;;;18.71;41.23;95307.28;4950189;29;20694;-75
2021/10/02 12:47:55;;;;;;;1502.60;76.45;;;;;;;18.87;40.41;95305.94;4949003;29;20027;-75
2021/10/02 12:50:23;;;;;;;2.72;2.30;;;;;;;18.84;41.14;95290.63;4933799;29;20038;-75
2021/10/02 12:52:50;;;;;;;64.47;4.25;;;;;;;18.47;41.56;95307.16;4934113;29;20016;-76
2021/10/02 12:55:16;;;;;;;358.85;19.55;;;;;;;18.65;40.78;95292.38;4933154;29;20054;-75
2021/10/02 12:57:42;;;;;;;751.85;46.38;;;;;;;18.54;40.54;95306.16;4949589;28;20035;-73
2021/10/02 13:00:10;;;;;;;1132.65;62.30;;;;;;;18.45;40.62;95286.41;4916867;29;20028;-73
2021/10/02 13:02:42;;;;;;;591.97;30.50;;;;;;;18.43;41.57;95304.97;4908814;29;20028;-74
2021/10/02 13:05:08;;;;;;;1337.55;65.53;;;;;;;18.57;41.57;95297.03;4944070;29;20023;-75
2021/10/02 13:07:36;;;;;;;806.95;37.78;;;;;;;18.41;41.66;95307.00;4915251;29;20024;-73
2021/10/02 13:10:18;;;;;;;984.33;48.72;;;;;;;18.59;41.56;95303.69;4933075;29;20493;-72
2021/10/02 13:12:43;;;;;;;167.63;11.00;;;;;;;18.37;41.81;95303.19;4945896;28;20473;-73
2021/10/02 13:15:33;;;;;;;5.05;2.20;;;;;;;18.45;41.69;95315.25;4946897;29;20067;-72
2021/10/02 13:18:13;;;;;;;80.05;5.38;;;;;;;18.43;41.86;95318.06;4946850;29;20508;-73
2021/10/02 13:20:41;;;;;;;;;;;;;;;18.33;41.59;95312.47;4933512;29;20682;-73
2021/10/02 13:23:18;;;;;;;740.47;31.52;;;;;;;18.66;41.71;95299.22;4950438;28;19916;-73
2021/10/02 13:25:47;;;;;;;335.45;16.17;;;;;;;18.45;42.05;95307.38;4933068;28;20047;-75
2021/10/02 13:28:31;;;;;;;4.30;2.67;;;;;;;18.27;42.55;95309.88;4949187;28;20532;-76
2021/10/02 13:31:02;;;;;;;1195.47;53.53;;;;;;;18.60;41.32;95297.44;4947760;29;20414;-75
2021/10/02 13:33:27;;;;;;;184.73;9.50;;;;;;;18.41;41.92;95304.38;4934194;29;20069;-75
2021/10/02 13:35:58;;;;;;;516.85;22.13;;;;;;;18.56;41.98;95304.09;4950055;28;20035;-74
2021/10/02 13:38:39;;;;;;;89.95;5.72;;;;;;;18.34;41.25;95300.97;4916793;29;20556;-75
2021/10/02 13:41:10;;;;;;;317.33;13.75;;;;;;;18.52;41.62;95308.19;4930233;29;20031;-74
2021/10/02 13:43:52;;;;;;;2.45;2.25;;;;;;;18.46;41.87;95310.81;4912249;29;20055;-74
2021/10/02 13:46:28;;;;;;;5.20;2.50;;;;;;;18.69;42.28;95308.47;4921627;29;20028;-75
2021/10/02 13:48:55;;;;;;;449.13;24.48;;;;;;;18.45;43.60;95310.00;4946654;29;20051;-75
2021/10/02 13:51:20;;;;;;;1681.03;92.60;;;;;;;18.39;44.81;95318.72;4929788;29;20511;-75
2021/10/02 13:53:46;;;;;;;365.35;18.08;;;;;;;18.10;45.51;95317.44;4948954;29;20023;-75
2021/10/02 13:56:11;;;;;;;1054.80;55.45;;;;;;;18.02;45.49;95312.41;4931047;29;20503;-75
2021/10/02 13:58:37;;;;;;;600.90;28.77;;;;;;;18.17;45.99;95306.94;4916801;29;20031;-76
2021/10/02 14:01:03;;;;;;;141.77;7.95;;;;;;;18.01;45.69;95316.06;4931592;29;20027;-76
2021/10/02 14:03:29;;;;;;;296.15;13.40;;;;;;;17.84;46.09;95309.66;4948540;29;20493;-73
2021/10/02 14:05:55;;;;;;;1176.45;78.22;;;;;;;17.87;45.90;95311.88;4915387;29;20043;-75
2021/10/02 14:08:20;;;;;;;103.95;5.97;;;;;;;17.79;46.02;95307.66;4932863;29;20031;-73
2021/10/02 14:10:46;;;;;;;535.63;28.17;;;;;;;17.89;46.07;95307.22;4932282;29;20023;-76
2021/10/02 14:13:11;;;;;;;178.30;11.23;;;;;;;17.94;46.27;95315.28;4931563;29;20436;-76
2021/10/02 14:15:37;;;;;;;1127.75;56.50;;;;;;;17.65;46.34;95308.72;4933002;29;20401;-76
2021/10/02 14:18:03;;;;;;;985.22;44.90;;;;;;;17.53;46.62;95312.91;4930676;28;20414;-74
2021/10/02 14:20:28;;;;;;;147.50;9.25;;;;;;;17.67;46.49;95308.50;4931694;29;20522;-75
2021/10/02 14:22:54;;;;;;;925.60;43.72;;;;;;;17.62;46.46;95303.88;4946696;28;20046;-76
2021/10/02 14:25:19;;;;;;;336.15;19.98;;;;;;;17.78;45.84;95318.34;4958850;28;20443;-76
2021/10/02 14:27:45;;;;;;;2.92;2.72;;;;;;;17.62;47.17;95316.97;4934690;28;20409;-75
2021/10/02 14:30:11;;;;;;;4.65;2.80;;;;;;;17.50;47.10;95320.41;4919118;28;20445;-75
2021/10/02 14:32:38;;;;;;;1113.82;53.30;;;;;;;17.39;46.81;95317.41;4952037;28;20027;-75
2021/10/02 14:35:04;;;;;;;978.53;54.15;;;;;;;17.38;46.81;95309.72;4934401;28;20475;-72
2021/10/02 14:37:29;;;;;;;422.95;21.40;;;;;;;17.52;47.31;95326.22;4933047;28;20039;-76
2021/10/02 14:39:55;;;;;;;1324.00;64.72;;;;;;;17.21;47.85;95322.44;4964380;28;20054;-75
2021/10/02 14:42:21;;;;;;;261.50;12.95;;;;;;;17.13;47.85;95325.25;4951530;28;20054;-74
2021/10/02 14:44:47;;;;;;;3.33;2.53;;;;;;;17.09;48.42;95313.56;4950304;28;20110;-72
2021/10/02 14:47:13;;;;;;;826.75;57.63;;;;;;;16.96;47.87;95328.47;4935669;28;20488;-75
2021/10/02 14:49:39;;;;;;;74.85;5.40;;;;;;;16.78;48.27;95306.31;4951411;28;20157;-75
2021/10/02 14:52:04;;;;;;;57.97;4.43;;;;;;;16.90;48.40;95326.66;4934361;28;20055;-74
2021/10/02 14:54:32;;;;;;;69.82;5.75;;;;;;;16.89;48.84;95333.69;4952011;28;20566;-73
2021/10/02 14:56:59;;;;;;;237.35;13.73;;;;;;;16.70;48.93;95321.38;4949656;28;20065;-73
2021/10/02 14:59:26;;;;;;;2.90;2.40;;;;;;;16.74;49.44;95327.84;4936139;28;20043;-75
2021/10/02 15:01:52;;;;;;;1999.90;123.22;;;;;;;16.62;49.18;95330.25;4933820;28;20448;-72
2021/10/02 15:04:17;;;;;;;422.70;22.10;;;;;;;16.55;49.99;95344.31;4935974;28;20031;-73
2021/10/02 15:06:46;;;;;;;630.30;32.75;;;;;;;16.46;49.91;95341.03;4935187;28;20031;-74
2021/10/02 15:09:13;;;;;;;3.78;2.13;;;;;;;16.39;50.12;95345.44;4934639;28;20030;-75
2021/10/02 15:11:38;;;;;;;213.05;14.65;;;;;;;16.31;50.62;95349.03;4919458;28;20035;-75
2021/10/02 15:14:04;;;;;;;1280.53;68.88;;;;;;;16.13;51.26;95350.56;4934050;28;20097;-75
2021/10/02 15:16:30;;;;;;;641.92;33.38;;;;;;;15.94;51.19;95328.56;4951594;28;20029;-77
2021/10/02 15:18:57;;;;;;;82.35;5.63;;;;;;;16.07;51.83;95353.97;4949203;28;20373;-75
2021/10/02 15:21:22;;;;;;;424.00;18.98;;;;;;;15.92;52.45;95348.88;4909112;28;20407;-75
2021/10/02 15:23:52;;;;;;;678.38;33.33;;;;;;;15.61;53.14;95346.69;4916880;28;20043;-74
2021/10/02 15:26:20;;;;;;;40.72;3.88;;;;;;;15.59;53.07;95346.06;4946986;28;20051;-75
2021/10/02 15:28:48;;;;;;;6.00;2.67;;;;;;;15.48;53.46;95351.00;4932554;29;20114;-75
2021/10/02 15:31:14;;;;;;;125.55;7.60;;;;;;;15.38;53.70;95361.75;4906838;29;20150;-75
2021/10/02 15:33:41;;;;;;;648.58;34.10;;;;;;;15.30;54.06;95362.72;4915104;29;20466;-75
2021/10/02 15:36:06;;;;;;;1308.55;68.22;;;;;;;15.13;54.91;95350.94;4929851;29;20118;-75
2021/10/02 15:38:32;;;;;;;508.10;27.70;;;;;;;15.07;55.26;95376.97;4934312;29;20027;-75
2021/10/02 15:40:58;;;;;;;16.67;3.10;;;;;;;14.91;55.41;95364.97;4949466;29;20027;-75
2021/10/02 15:43:25;;;;;;;3.80;2.42;;;;;;;14.86;56.48;95379.59;4934541;29;20038;-75
2021/10/02 15:45:51;;;;;;;2.92;2.63;;;;;;;14.83;56.55;95375.56;4950343;28;20556;-74
2021/10/02 15:48:16;;;;;;;3.75;2.65;;;;;;;14.74;57.35;95374.03;4930617;29;20027;-75
2021/10/02 15:50:47;;;;;;;6.18;2.65;;;;;;;14.50;58.36;95382.22;4916184;29;20039;-77
2021/10/02 15:53:12;;;;;;;78.65;6.03;;;;;;;14.31;58.58;95382.78;4932259;29;20032;-76
2021/10/02 15:55:40;;;;;;;5.43;2.92;;;;;;;14.45;57.38;95379.38;4915803;29;20047;-75
2021/10/02 15:58:06;;;;;;;358.48;18.05;;;;;;;14.46;56.73;95375.75;4930223;29;20031;-75
2021/10/02 16:00:34;;;;;;;8.88;2.60;;;;;;;14.32;57.54;95373.97;4947193;29;20086;-75
2021/10/02 16:03:35;;;;;;;677.30;34.85;;;;;;;14.07;58.63;95379.47;4904179;29;20461;-75
2021/10/02 16:06:00;;;;;;;220.35;13.05;;;;;;;13.95;58.86;95382.72;4916322;29;20127;-75
2021/10/02 16:08:26;;;;;;;227.35;13.27;;;;;;;13.80;59.54;95384.53;4933425;29;20401;-75
2021/10/02 16:10:52;;;;;;;5.88;2.42;;;;;;;13.70;59.77;95382.19;4932743;29;20026;-75
2021/10/02 16:13:19;;;;;;;6.05;2.72;;;;;;;13.66;60.57;95397.34;4934137;29;20094;-75
2021/10/02 16:15:45;;;;;;;98.97;6.47;;;;;;;13.54;60.72;95387.56;4933588;29;20023;-76
2021/10/02 16:18:12;;;;;;;5.20;2.53;;;;;;;13.44;61.16;95389.59;4932734;29;20066;-76
2021/10/02 16:20:38;;;;;;;48.58;4.88;;;;;;;13.17;62.03;95380.56;4934639;29;20031;-75
2021/10/02 16:23:04;;;;;;;8.48;2.80;;;;;;;12.85;64.54;95384.22;4931533;29;20492;-75
2021/10/02 16:25:31;;;;;;;7.82;4.20;;;;;;;12.78;64.11;95382.50;4934058;29;20039;-75
2021/10/02 16:27:57;;;;;;;9.93;4.10;;;;;;;12.58;65.38;95400.34;4913694;29;20035;-76
2021/10/02 16:30:25;;;;;;;10.75;3.90;;;;;;;12.53;66.23;95402.63;4924689;29;20086;-76
2021/10/02 16:32:51;;;;;;;4.65;3.85;;;;;;;12.73;65.21;95406.41;4914587;29;20024;-76
2021/10/02 16:35:17;;;;;;;1151.80;66.80;;;;;;;12.20;66.09;95393.41;4930396;29;20050;-76
2021/10/02 16:37:42;;;;;;;6.65;3.65;;;;;;;12.04;66.91;95409.84;4917590;29;20031;-75
2021/10/02 16:40:11;;;;;;;193.60;14.25;;;;;;;12.22;64.91;95414.78;4931924;29;20075;-75
2021/10/02 16:42:37;;;;;;;6.07;3.30;;;;;;;12.02;65.76;95402.22;4934142;29;20035;-76
2021/10/02 16:45:07;;;;;;;50.50;5.82;;;;;;;11.89;66.64;95412.31;4932496;29;20395;-76
2021/10/02 16:47:32;;;;;;;4.93;3.88;;;;;;;11.91;66.04;95425.94;4914193;29;20047;-76
2021/10/02 16:49:58;;;;;;;3.85;3.53;;;;;;;11.59;68.25;95413.81;4913341;29;20050;-76
2021/10/02 16:56:04;;;;;;;9.73;5.00;;;;;;;11.39;70.30;95425.53;4950244;29;20460;-75
2021/10/02 16:58:29;;;;;;;4.75;4.35;;;;;;;11.33;69.78;95415.84;4931723;29;20386;-75
2021/10/02 17:00:55;;;;;;;6.35;5.10;;;;;;;11.29;68.79;95418.91;4934065;29;20085;-75
2021/10/02 17:03:20;;;;;;;6.20;4.53;;;;;;;11.34;69.08;95421.78;4929247;29;20038;-76
2021/10/02 17:05:46;;;;;;;6.35;4.35;;;;;;;11.38;67.34;95425.69;4912889;29;20505;-75
2021/10/02 17:08:12;;;;;;;6.20;4.57;;;;;;;11.07;70.55;95431.56;4930049;29;20055;-75
2021/10/02 17:10:37;;;;;;;5.55;4.55;;;;;;;11.03;69.57;95440.63;4928820;29;20066;-75
2021/10/02 17:13:04;;;;;;;5.03;4.47;;;;;;;10.78;71.41;95432.97;4915052;29;20426;-75
2021/10/02 17:15:29;;;;;;;10.45;4.45;;;;;;;10.45;73.88;95450.22;4928940;29;20514;-76